sensor_id;sensor_type;location;lat;lon;timestamp;pressure;altitude;pressure_sealevel;temperature;humidity
39699;BME280;25372;50.582;12.250;2023-04-23T00:08:56;99047.25;;;11.16;66.32
39699;BME280;25372;50.582;12.250;2023-04-23T00:19:20;99033.63;;;11.11;66.17
39699;BME280;25372;50.582;12.250;2023-04-23T00:29:41;99025.59;;;11.24;66.83
39699;BME280;25372;50.582;12.250;2023-04-23T00:40:07;99019.31;;;10.93;67.29
39699;BME280;25372;50.582;12.250;2023-04-23T00:50:28;99010.34;;;10.84;66.92
39699;BME280;25372;50.582;12.250;2023-04-23T01:00:51;99021.06;;;10.58;69.71
39699;BME280;25372;50.582;12.250;2023-04-23T01:11:12;99011.63;;;10.44;69.14
39699;BME280;25372;50.582;12.250;2023-04-23T01:21:38;99018.44;;;10.46;72.74
39699;BME280;25372;50.582;12.250;2023-04-23T01:32:01;99009.53;;;10.25;70.88
39699;BME280;25372;50.582;12.250;2023-04-23T01:42:22;99019.41;;;10.21;71.26
39699;BME280;25372;50.582;12.250;2023-04-23T01:52:47;99008.00;;;9.86;70.85
39699;BME280;25372;50.582;12.250;2023-04-23T02:03:08;99015.22;;;10.07;71.75
39699;BME280;25372;50.582;12.250;2023-04-23T02:13:31;99008.16;;;9.72;73.87
39699;BME280;25372;50.582;12.250;2023-04-23T02:23:52;99002.19;;;9.70;75.64
39699;BME280;25372;50.582;12.250;2023-04-23T02:34:14;99003.16;;;9.69;75.26
39699;BME280;25372;50.582;12.250;2023-04-23T02:44:35;99016.13;;;9.94;74.46
39699;BME280;25372;50.582;12.250;2023-04-23T02:54:57;99008.38;;;9.93;73.18
39699;BME280;25372;50.582;12.250;2023-04-23T03:05:18;99006.53;;;9.82;74.46
39699;BME280;25372;50.582;12.250;2023-04-23T03:15:41;98995.47;;;9.90;73.76
39699;BME280;25372;50.582;12.250;2023-04-23T03:26:02;98983.00;;;10.05;75.22
39699;BME280;25372;50.582;12.250;2023-04-23T03:36:25;98963.97;;;10.14;73.32
39699;BME280;25372;50.582;12.250;2023-04-23T03:46:47;98946.38;;;10.51;72.49
39699;BME280;25372;50.582;12.250;2023-04-23T03:57:11;98945.44;;;10.74;71.71
39699;BME280;25372;50.582;12.250;2023-04-23T04:07:45;98959.88;;;10.80;71.57
39699;BME280;25372;50.582;12.250;2023-04-23T04:18:08;98965.22;;;11.01;71.11
39699;BME280;25372;50.582;12.250;2023-04-23T04:28:28;98966.63;;;10.94;71.80
39699;BME280;25372;50.582;12.250;2023-04-23T04:38:55;98976.69;;;10.77;72.92
39699;BME280;25372;50.582;12.250;2023-04-23T04:49:18;98977.84;;;11.19;72.00
39699;BME280;25372;50.582;12.250;2023-04-23T04:59:41;98972.06;;;11.69;71.61
39699;BME280;25372;50.582;12.250;2023-04-23T05:10:03;98982.28;;;12.48;68.64
39699;BME280;25372;50.582;12.250;2023-04-23T05:20:25;98980.88;;;13.06;66.85
39699;BME280;25372;50.582;12.250;2023-04-23T05:30:46;99000.13;;;13.47;64.67
39699;BME280;25372;50.582;12.250;2023-04-23T05:41:08;99001.81;;;13.58;64.55
39699;BME280;25372;50.582;12.250;2023-04-23T05:51:29;98991.13;;;13.69;65.12
39699;BME280;25372;50.582;12.250;2023-04-23T06:01:51;98996.78;;;14.04;64.65
39699;BME280;25372;50.582;12.250;2023-04-23T06:12:12;98984.34;;;14.92;60.83
39699;BME280;25372;50.582;12.250;2023-04-23T06:22:34;98989.28;;;15.51;60.36
39699;BME280;25372;50.582;12.250;2023-04-23T06:32:56;98998.06;;;16.06;58.39
39699;BME280;25372;50.582;12.250;2023-04-23T06:43:18;99016.28;;;16.09;59.56
39699;BME280;25372;50.582;12.250;2023-04-23T06:54:09;99009.25;;;15.63;58.18
39699;BME280;25372;50.582;12.250;2023-04-23T07:04:31;99019.59;;;15.38;58.66
39699;BME280;25372;50.582;12.250;2023-04-23T07:14:51;99019.47;;;15.58;60.05
39699;BME280;25372;50.582;12.250;2023-04-23T07:25:14;99032.97;;;15.09;60.87
39699;BME280;25372;50.582;12.250;2023-04-23T07:35:35;99034.53;;;15.02;60.52
39699;BME280;25372;50.582;12.250;2023-04-23T07:45:57;99039.25;;;15.08;61.22
39699;BME280;25372;50.582;12.250;2023-04-23T07:56:18;99039.75;;;16.48;58.18
39699;BME280;25372;50.582;12.250;2023-04-23T08:06:41;99037.34;;;16.11;59.52
39699;BME280;25372;50.582;12.250;2023-04-23T08:17:02;99031.25;;;16.18;59.71
39699;BME280;25372;50.582;12.250;2023-04-23T08:27:24;99038.97;;;16.83;59.26
39699;BME280;25372;50.582;12.250;2023-04-23T08:37:45;99039.22;;;17.32;55.90
39699;BME280;25372;50.582;12.250;2023-04-23T08:48:08;99057.94;;;16.70;57.68
39699;BME280;25372;50.582;12.250;2023-04-23T08:58:30;99068.91;;;15.76;61.82
39699;BME280;25372;50.582;12.250;2023-04-23T09:08:52;99071.09;;;16.08;59.67
39699;BME280;25372;50.582;12.250;2023-04-23T09:19:15;99074.13;;;17.63;57.09
39699;BME280;25372;50.582;12.250;2023-04-23T09:29:38;99080.47;;;17.86;54.43
39699;BME280;25372;50.582;12.250;2023-04-23T09:39:59;99081.34;;;17.01;56.29
39699;BME280;25372;50.582;12.250;2023-04-23T09:50:32;99076.59;;;16.60;57.14
39699;BME280;25372;50.582;12.250;2023-04-23T10:01:05;99083.25;;;16.64;56.60
39699;BME280;25372;50.582;12.250;2023-04-23T10:11:27;99076.81;;;17.19;57.37
39699;BME280;25372;50.582;12.250;2023-04-23T10:21:49;99055.22;;;17.66;56.04
39699;BME280;25372;50.582;12.250;2023-04-23T10:32:14;99062.50;;;17.12;56.56
39699;BME280;25372;50.582;12.250;2023-04-23T10:42:35;99055.84;;;17.43;55.25
39699;BME280;25372;50.582;12.250;2023-04-23T10:52:58;99070.38;;;17.82;54.59
39699;BME280;25372;50.582;12.250;2023-04-23T11:03:28;99067.19;;;17.78;53.61
39699;BME280;25372;50.582;12.250;2023-04-23T11:13:51;99065.53;;;17.69;55.34
39699;BME280;25372;50.582;12.250;2023-04-23T11:24:14;99070.78;;;17.52;56.77
39699;BME280;25372;50.582;12.250;2023-04-23T11:34:38;99085.34;;;18.08;55.81
39699;BME280;25372;50.582;12.250;2023-04-23T11:44:58;99070.03;;;17.25;56.11
39699;BME280;25372;50.582;12.250;2023-04-23T11:55:21;99077.47;;;17.81;56.51
39699;BME280;25372;50.582;12.250;2023-04-23T12:05:43;99069.66;;;17.12;59.29
39699;BME280;25372;50.582;12.250;2023-04-23T12:16:05;99065.72;;;16.98;58.43
39699;BME280;25372;50.582;12.250;2023-04-23T12:26:26;99081.34;;;17.36;56.92
39699;BME280;25372;50.582;12.250;2023-04-23T12:36:50;99074.41;;;17.43;55.60
39699;BME280;25372;50.582;12.250;2023-04-23T12:47:11;99062.44;;;18.31;53.35
39699;BME280;25372;50.582;12.250;2023-04-23T12:57:35;99052.09;;;18.70;52.12
39699;BME280;25372;50.582;12.250;2023-04-23T13:07:55;99034.47;;;18.69;52.42
39699;BME280;25372;50.582;12.250;2023-04-23T13:18:17;99022.44;;;18.33;52.64
39699;BME280;25372;50.582;12.250;2023-04-23T13:28:41;98992.91;;;19.24;51.91
39699;BME280;25372;50.582;12.250;2023-04-23T13:39:03;98991.69;;;18.39;53.46
39699;BME280;25372;50.582;12.250;2023-04-23T13:49:26;98969.94;;;18.27;51.92
39699;BME280;25372;50.582;12.250;2023-04-23T13:59:48;98958.47;;;18.83;51.50
39699;BME280;25372;50.582;12.250;2023-04-23T14:10:09;98953.66;;;18.86;52.66
39699;BME280;25372;50.582;12.250;2023-04-23T14:20:32;98936.44;;;18.66;51.07
39699;BME280;25372;50.582;12.250;2023-04-23T14:30:53;98942.25;;;17.88;52.26
39699;BME280;25372;50.582;12.250;2023-04-23T14:41:16;98933.16;;;16.98;54.32
39699;BME280;25372;50.582;12.250;2023-04-23T14:51:37;98915.72;;;16.95;55.88
39699;BME280;25372;50.582;12.250;2023-04-23T15:02:00;98913.47;;;17.09;54.35
39699;BME280;25372;50.582;12.250;2023-04-23T15:12:40;98905.56;;;17.50;52.53
39699;BME280;25372;50.582;12.250;2023-04-23T15:23:03;98901.41;;;17.47;53.21
39699;BME280;25372;50.582;12.250;2023-04-23T15:33:24;98903.25;;;17.22;56.10
39699;BME280;25372;50.582;12.250;2023-04-23T15:43:46;98900.78;;;16.08;69.11
39699;BME280;25372;50.582;12.250;2023-04-23T15:54:08;98877.63;;;16.45;68.07
39699;BME280;25372;50.582;12.250;2023-04-23T16:04:33;98883.78;;;16.54;67.87
39699;BME280;25372;50.582;12.250;2023-04-23T16:14:53;98860.94;;;16.53;61.84
39699;BME280;25372;50.582;12.250;2023-04-23T16:25:16;98844.47;;;16.84;59.64
39699;BME280;25372;50.582;12.250;2023-04-23T16:35:37;98830.38;;;16.91;58.55
39699;BME280;25372;50.582;12.250;2023-04-23T16:45:59;98811.34;;;17.63;58.16
39699;BME280;25372;50.582;12.250;2023-04-23T16:56:20;98819.09;;;16.81;59.75
39699;BME280;25372;50.582;12.250;2023-04-23T17:06:43;98806.16;;;16.61;61.04
39699;BME280;25372;50.582;12.250;2023-04-23T17:17:04;98788.50;;;17.45;59.29
39699;BME280;25372;50.582;12.250;2023-04-23T17:27:26;98783.34;;;16.94;59.13
39699;BME280;25372;50.582;12.250;2023-04-23T17:37:47;98773.44;;;14.95;66.98
39699;BME280;25372;50.582;12.250;2023-04-23T17:48:09;98767.50;;;14.19;70.23
39699;BME280;25372;50.582;12.250;2023-04-23T17:58:29;98768.19;;;13.93;70.60
39699;BME280;25372;50.582;12.250;2023-04-23T18:08:51;98778.03;;;14.01;70.43
39699;BME280;25372;50.582;12.250;2023-04-23T18:19:12;98791.25;;;13.53;72.41
39699;BME280;25372;50.582;12.250;2023-04-23T18:29:34;98802.91;;;13.61;70.95
39699;BME280;25372;50.582;12.250;2023-04-23T18:39:55;98817.63;;;13.53;71.25
39699;BME280;25372;50.582;12.250;2023-04-23T18:50:35;98830.94;;;13.42;72.69
39699;BME280;25372;50.582;12.250;2023-04-23T19:00:56;98853.53;;;12.95;74.43
39699;BME280;25372;50.582;12.250;2023-04-23T19:11:18;98836.59;;;12.27;77.34
39699;BME280;25372;50.582;12.250;2023-04-23T19:21:39;98830.91;;;11.49;80.81
39699;BME280;25372;50.582;12.250;2023-04-23T19:32:01;98813.66;;;11.35;80.89
39699;BME280;25372;50.582;12.250;2023-04-23T19:42:22;98798.56;;;10.83;81.89
39699;BME280;25372;50.582;12.250;2023-04-23T19:52:44;98792.34;;;10.51;82.79
39699;BME280;25372;50.582;12.250;2023-04-23T20:03:05;98785.78;;;10.45;83.71
39699;BME280;25372;50.582;12.250;2023-04-23T20:13:27;98772.69;;;10.23;83.75
39699;BME280;25372;50.582;12.250;2023-04-23T20:23:48;98756.25;;;9.98;84.76
39699;BME280;25372;50.582;12.250;2023-04-23T20:34:10;98748.97;;;9.78;84.70
39699;BME280;25372;50.582;12.250;2023-04-23T20:44:31;98751.22;;;9.49;85.86
39699;BME280;25372;50.582;12.250;2023-04-23T20:54:54;98735.75;;;9.46;86.16
39699;BME280;25372;50.582;12.250;2023-04-23T21:05:15;98729.63;;;9.22;86.75
39699;BME280;25372;50.582;12.250;2023-04-23T21:15:37;98730.84;;;8.94;87.40
39699;BME280;25372;50.582;12.250;2023-04-23T21:25:58;98741.53;;;8.79;87.44
39699;BME280;25372;50.582;12.250;2023-04-23T21:36:20;98733.88;;;8.65;87.75
39699;BME280;25372;50.582;12.250;2023-04-23T21:46:41;98722.06;;;8.95;85.97
39699;BME280;25372;50.582;12.250;2023-04-23T21:57:05;98720.16;;;8.61;87.88
39699;BME280;25372;50.582;12.250;2023-04-23T22:07:26;98713.94;;;8.38;87.51
39699;BME280;25372;50.582;12.250;2023-04-23T22:17:49;98702.00;;;8.47;87.92
39699;BME280;25372;50.582;12.250;2023-04-23T22:28:10;98691.31;;;8.50;87.37
39699;BME280;25372;50.582;12.250;2023-04-23T22:38:33;98667.31;;;8.56;87.52
39699;BME280;25372;50.582;12.250;2023-04-23T22:48:54;98662.88;;;8.70;87.65
39699;BME280;25372;50.582;12.250;2023-04-23T22:59:16;98636.75;;;8.57;87.92
39699;BME280;25372;50.582;12.250;2023-04-23T23:09:37;98623.78;;;8.55;88.43
39699;BME280;25372;50.582;12.250;2023-04-23T23:19:58;98610.34;;;8.60;88.65
39699;BME280;25372;50.582;12.250;2023-04-23T23:30:19;98602.78;;;8.68;88.11
39699;BME280;25372;50.582;12.250;2023-04-23T23:40:41;98595.50;;;8.60;88.38
39699;BME280;25372;50.582;12.250;2023-04-23T23:51:03;98585.47;;;8.54;88.75
